Time;durP1;ratioP1;P1;durP2;ratioP2;P2;SDS_P1;SDS_P2;PMS_P1;PMS_P2;Temp;Humidity;BMP_temperature;BMP_pressure;BME280_temperature;BME280_humidity;BME280_pressure;Samples;Min_cycle;Max_cycle;Signal;HPM_P1;HPM_P2
2023/08/02 06:32:19;;;;;;;2.15;2.15;;;;;;;31.41;45.46;96280.56;5059477;28;20397;-61
2023/08/02 06:34:46;;;;;;;2.10;2.10;;;;;;;30.90;46.86;96288.47;5037014;28;20049;-63
2023/08/02 06:37:13;;;;;;;1.83;1.83;;;;;;;30.06;48.06;96219.66;5036858;28;20114;-68
2023/08/02 06:39:39;;;;;;;2.03;2.03;;;;;;;30.45;48.26;96309.81;5039714;28;20045;-61
2023/08/02 06:42:06;;;;;;;1.83;1.83;;;;;;;29.82;49.06;96280.13;5038554;28;20053;-62
2023/08/02 06:44:33;;;;;;;1.90;1.90;;;;;;;29.87;49.42;96270.00;5039309;28;20049;-61
2023/08/02 06:47:20;;;;;;;1.92;1.92;;;;;;;29.76;49.51;96281.41;5031291;28;20050;-61
2023/08/02 06:49:46;;;;;;;1.80;1.80;;;;;;;29.31;50.45;96269.03;5043823;28;20456;-61
2023/08/02 06:52:13;;;;;;;1.70;1.70;;;;;;;29.62;50.44;96311.72;5023508;28;20053;-62
2023/08/02 06:54:40;;;;;;;1.65;1.65;;;;;;;28.95;51.63;96292.72;5037208;28;20053;-62
2023/08/02 06:57:07;;;;;;;1.75;1.75;;;;;;;28.70;52.53;96322.09;5052768;28;20582;-61
2023/08/02 06:59:34;;;;;;;1.88;1.88;;;;;;;28.56;52.61;96294.53;5036175;28;20045;-63
2023/08/02 07:02:00;;;;;;;1.77;1.77;;;;;;;28.04;52.76;96180.69;5036857;28;20045;-63
2023/08/02 07:04:27;;;;;;;1.90;1.90;;;;;;;28.99;51.86;96316.09;5037311;28;20092;-69
2023/08/02 07:06:54;;;;;;;1.95;1.95;;;;;;;29.29;51.60;96312.38;5031519;28;20533;-64
2023/08/02 07:09:20;;;;;;;2.20;2.20;;;;;;;28.00;51.13;96100.41;5036701;28;20071;-66
2023/08/02 07:11:47;;;;;;;1.70;1.70;;;;;;;29.10;52.41;96316.19;5033879;28;20056;-61
2023/08/02 07:14:14;;;;;;;1.80;1.80;;;;;;;28.20;53.32;96195.56;5042154;28;20063;-66
2023/08/02 07:16:41;;;;;;;1.83;1.83;;;;;;;28.89;52.44;96309.00;5038824;28;20065;-63
2023/08/02 07:19:08;;;;;;;1.67;1.67;;;;;;;29.03;51.61;96311.69;5034727;28;20052;-64
2023/08/02 07:21:34;;;;;;;1.60;1.60;;;;;;;29.15;51.95;96312.56;5039510;28;20079;-61
2023/08/02 07:24:01;;;;;;;1.75;1.75;;;;;;;28.67;52.19;96294.63;5038999;28;20040;-61
2023/08/02 07:26:28;;;;;;;1.67;1.67;;;;;;;28.53;51.86;96232.84;5053553;28;20060;-61
2023/08/02 07:28:55;;;;;;;1.85;1.85;;;;;;;28.72;51.28;96214.81;5043899;28;20423;-67
2023/08/02 07:31:21;;;;;;;1.80;1.80;;;;;;;29.53;51.03;96320.50;5039153;28;20064;-60
2023/08/02 07:33:48;;;;;;;1.90;1.90;;;;;;;29.46;50.42;96269.63;5040293;28;20451;-65
2023/08/02 07:36:18;;;;;;;1.83;1.83;;;;;;;29.84;49.60;96306.09;5038131;28;20440;-59
2023/08/02 07:38:45;;;;;;;1.73;1.73;;;;;;;30.07;48.95;96321.97;5040040;28;20045;-57
2023/08/02 07:41:13;;;;;;;1.90;1.90;;;;;;;30.01;48.80;96298.34;5036141;28;20068;-62
2023/08/02 07:43:39;;;;;;;1.80;1.80;;;;;;;30.22;49.84;96325.44;5027007;28;20053;-59
2023/08/02 07:46:18;;;;;;;1.92;1.92;;;;;;;30.46;48.95;96311.38;5025035;28;20049;-61
2023/08/02 07:48:45;;;;;;;1.85;1.85;;;;;;;30.74;48.77;96332.19;5021165;28;20129;-60
2023/08/02 07:51:12;;;;;;;1.77;1.77;;;;;;;29.52;49.61;96284.69;5022822;28;20057;-64
2023/08/02 07:53:39;;;;;;;1.77;1.77;;;;;;;29.89;49.71;96319.63;5023752;28;20057;-58
2023/08/02 07:56:07;;;;;;;1.67;1.67;;;;;;;28.68;50.82;96256.25;5027465;28;20135;-67
2023/08/02 07:58:33;;;;;;;1.90;1.90;;;;;;;28.46;50.57;96162.84;5026717;28;20049;-70
2023/08/02 08:01:07;;;;;;;1.65;1.65;;;;;;;30.17;49.64;96300.44;5024194;28;20501;-66
2023/08/02 08:03:35;;;;;;;1.67;1.67;;;;;;;30.71;48.50;96298.88;5026057;28;20319;-66
2023/08/02 08:06:13;;;;;;;1.80;1.80;;;;;;;31.04;46.92;96297.28;5021895;28;20053;-62
2023/08/02 08:08:42;;;;;;;1.88;1.88;;;;;;;31.27;45.82;96302.41;5006280;28;20096;-62
2023/08/02 08:11:09;;;;;;;1.95;1.95;;;;;;;31.35;46.10;96305.53;5014335;28;20057;-64
2023/08/02 08:13:36;;;;;;;1.95;1.95;;;;;;;30.55;46.58;96199.63;5019037;28;20119;-68
2023/08/02 08:16:02;;;;;;;1.80;1.80;;;;;;;31.32;46.06;96293.06;5024080;28;20053;-65
2023/08/02 08:18:33;;;;;;;1.90;1.90;;;;;;;31.24;46.11;96296.97;5025394;28;20067;-63
2023/08/02 08:21:02;;;;;;;2.10;2.10;;;;;;;31.04;46.52;96263.75;5023999;28;20049;-61
2023/08/02 08:23:31;;;;;;;2.10;2.10;;;;;;;30.59;46.52;96180.09;5016225;28;20664;-64
2023/08/02 08:25:58;;;;;;;2.15;2.15;;;;;;;31.24;47.16;96279.78;5034167;28;20097;-64
2023/08/02 08:28:24;;;;;;;2.00;2.00;;;;;;;30.75;47.65;96302.28;5024572;28;20069;-65
2023/08/02 08:31:02;;;;;;;2.05;2.05;;;;;;;30.69;47.97;96301.50;5004598;28;20544;-59
2023/08/02 08:33:30;;;;;;;1.70;1.70;;;;;;;29.99;49.00;96266.66;5023090;28;20103;-66
2023/08/02 08:35:57;;;;;;;2.10;2.10;;;;;;;30.49;48.08;96310.34;5025129;28;20049;-66
2023/08/02 08:38:24;;;;;;;2.00;2.00;;;;;;;30.84;47.61;96302.00;5021616;28;20057;-63
2023/08/02 08:40:55;;;;;;;1.95;1.95;;;;;;;30.74;47.54;96251.31;5024713;28;20104;-64
2023/08/02 08:43:26;;;;;;;1.77;1.77;;;;;;;31.11;47.00;96222.34;5024733;28;20056;-61
2023/08/02 08:45:54;;;;;;;2.03;2.03;;;;;;;31.60;46.37;96310.16;5018161;28;20053;-62
2023/08/02 08:48:22;;;;;;;1.83;1.83;;;;;;;31.52;45.59;96243.28;5005372;28;20140;-61
2023/08/02 08:50:49;;;;;;;1.80;1.80;;;;;;;31.74;45.38;96263.19;5004960;28;20504;-63
2023/08/02 08:53:31;;;;;;;1.83;1.83;;;;;;;32.02;45.05;96295.34;5011933;28;20411;-62
2023/08/02 08:55:59;;;;;;;1.90;1.90;;;;;;;30.55;44.88;96059.53;5021702;28;20056;-59
2023/08/02 08:58:26;;;;;;;1.90;1.90;;;;;;;32.16;43.80;96254.06;5014669;28;20133;-62
2023/08/02 09:00:54;;;;;;;1.88;1.88;;;;;;;32.50;44.02;96284.03;5013910;28;20081;-62
2023/08/02 09:03:23;;;;;;;2.00;2.00;;;;;;;32.29;43.21;96211.22;5022803;28;20052;-64
2023/08/02 09:05:50;;;;;;;2.00;2.00;;;;;;;32.14;43.58;96164.94;5022953;28;20067;-64
2023/08/02 09:08:17;;;;;;;1.90;1.90;;;;;;;33.36;42.41;96279.25;5024994;28;20103;-59
2023/08/02 09:10:44;;;;;;;2.22;2.22;;;;;;;33.25;41.54;96199.78;5024494;28;20045;-65
2023/08/02 09:13:39;;;;;;;2.20;2.20;;;;;;;32.44;43.92;96280.44;5024936;28;20128;-60
2023/08/02 09:16:10;;;;;;;2.10;2.10;;;;;;;32.43;44.01;96270.28;5016031;28;20133;-64
2023/08/02 09:18:38;;;;;;;2.03;2.03;;;;;;;32.50;43.04;96284.03;5005022;28;20065;-66
2023/08/02 09:21:07;;;;;;;2.10;2.10;;;;;;;32.53;43.06;96265.78;5004824;28;20053;-64
2023/08/02 09:23:33;;;;;;;2.20;2.20;;;;;;;32.07;43.82;96274.47;5010327;28;20154;-60
2023/08/02 09:26:10;;;;;;;1.95;1.95;;;;;;;31.84;44.21;96270.19;5043790;28;20049;-64
2023/08/02 09:28:37;;;;;;;1.83;1.83;;;;;;;31.80;44.62;96261.06;5044247;28;20049;-61
2023/08/02 09:31:18;;;;;;;2.03;2.03;;;;;;;32.31;44.23;96272.44;5043343;28;20069;-65
2023/08/02 09:33:53;;;;;;;1.96;1.96;;;;;;;32.42;42.54;96260.16;4493254;28;10001952;-60
2023/08/02 09:36:31;;;;;;;1.95;1.95;;;;;;;32.84;42.43;96265.22;3049213;28;10001961;-64
2023/08/02 09:39:03;;;;;;;1.92;1.92;;;;;;;32.70;42.81;96259.88;5004774;28;20054;-60
2023/08/02 09:41:31;;;;;;;2.20;2.20;;;;;;;32.67;42.52;96235.91;5004624;28;20049;-65
2023/08/02 09:44:21;;;;;;;1.95;1.95;;;;;;;32.22;42.31;96188.84;5017166;28;20155;-65
2023/08/02 09:47:10;;;;;;;2.22;2.22;;;;;;;32.60;41.96;96229.97;5017072;28;20041;-60
2023/08/02 09:49:38;;;;;;;2.20;2.20;;;;;;;33.43;42.25;96267.97;5004166;28;20048;-66
2023/08/02 09:52:07;;;;;;;2.42;2.40;;;;;;;33.63;39.89;96241.59;5010482;28;20063;-65
2023/08/02 09:54:34;;;;;;;2.08;2.08;;;;;;;33.99;39.67;96250.00;5024168;28;20061;-65
2023/08/02 09:57:04;;;;;;;2.05;2.05;;;;;;;34.02;39.46;96243.16;5024261;28;20112;-61
2023/08/02 09:59:32;;;;;;;2.28;2.28;;;;;;;34.13;39.91;96225.72;5024211;28;20053;-60
2023/08/02 10:01:59;;;;;;;2.10;2.10;;;;;;;34.58;38.52;96238.84;5024003;28;20049;-63
2023/08/02 10:04:27;;;;;;;2.10;2.10;;;;;;;34.76;38.02;96208.44;5023458;28;20137;-64
2023/08/02 10:07:02;;;;;;;2.00;2.00;;;;;;;33.75;37.24;96041.03;5023462;28;20100;-62
2023/08/02 10:09:33;;;;;;;1.80;1.80;;;;;;;35.01;37.24;96183.88;5023683;28;20440;-60
2023/08/02 10:12:11;;;;;;;2.28;2.28;;;;;;;35.77;37.02;96226.00;5024029;28;20063;-62
2023/08/02 10:14:38;;;;;;;2.17;2.17;;;;;;;35.83;36.70;96224.56;5024104;28;20053;-65
2023/08/02 10:17:04;;;;;;;1.88;1.88;;;;;;;35.24;36.81;96231.03;5022444;28;20060;-60
2023/08/02 10:19:34;;;;;;;2.10;2.10;;;;;;;35.00;37.75;96229.16;5023749;28;20050;-61
2023/08/02 10:22:03;;;;;;;2.08;2.08;;;;;;;34.97;37.19;96218.75;5018692;28;20591;-62
2023/08/02 10:24:30;;;;;;;2.10;2.10;;;;;;;35.07;35.70;96170.13;5017256;28;20500;-66
2023/08/02 10:27:02;;;;;;;1.90;1.90;;;;;;;35.50;35.25;96225.28;5015777;28;20038;-62
2023/08/02 10:29:31;;;;;;;2.20;2.20;;;;;;;35.28;34.77;96150.84;5021740;28;20577;-66
2023/08/02 10:32:10;;;;;;;2.40;2.38;;;;;;;35.67;34.34;96194.00;5003573;28;20062;-65
2023/08/02 10:34:37;;;;;;;2.00;2.00;;;;;;;35.83;34.01;96206.47;5015820;28;20049;-63
2023/08/02 10:37:04;;;;;;;1.77;1.77;;;;;;;35.64;34.60;96206.63;5019273;28;20041;-66
2023/08/02 10:39:46;;;;;;;2.42;2.40;;;;;;;35.39;35.45;96202.47;5037964;28;20363;-61
2023/08/02 10:42:13;;;;;;;2.20;2.20;;;;;;;35.05;36.07;96149.75;5038839;28;20057;-64
2023/08/02 10:44:55;;;;;;;1.90;1.90;;;;;;;35.32;35.37;96190.81;5012139;28;20140;-65
2023/08/02 10:47:29;;;;;;;2.25;2.25;;;;;;;35.38;35.66;96192.28;5013121;28;20314;-64
2023/08/02 10:49:57;;;;;;;2.00;2.00;;;;;;;34.98;34.96;96167.72;5014760;28;20053;-62
2023/08/02 10:52:30;;;;;;;2.35;2.35;;;;;;;34.80;35.38;96226.13;5018605;28;20057;-62
2023/08/02 10:55:15;;;;;;;1.83;1.83;;;;;;;34.68;34.30;96155.72;5014369;28;20068;-58
2023/08/02 10:57:54;;;;;;;1.98;1.98;;;;;;;34.36;35.40;96186.63;5031862;28;20042;-62
2023/08/02 11:00:25;;;;;;;1.70;1.70;;;;;;;34.50;35.25;96133.56;5015203;28;20060;-60
2023/08/02 11:02:53;;;;;;;2.17;2.17;;;;;;;35.12;34.10;96175.00;5003855;28;20050;-62
2023/08/02 11:05:42;;;;;;;2.20;2.20;;;;;;;34.62;34.31;96164.44;5016410;28;20131;-61
2023/08/02 11:08:10;;;;;;;2.05;2.05;;;;;;;34.67;34.40;96126.16;5012143;28;20057;-65
2023/08/02 11:10:52;;;;;;;1.92;1.92;;;;;;;34.79;34.00;96167.03;5011206;28;20305;-64
2023/08/02 11:13:21;;;;;;;1.88;1.88;;;;;;;33.43;34.13;95965.63;5017990;28;20049;-64
2023/08/02 11:16:00;;;;;;;2.03;2.03;;;;;;;34.94;33.94;96167.25;5009191;28;20054;-66
2023/08/02 11:18:26;;;;;;;2.15;2.15;;;;;;;33.71;33.72;95978.16;5016776;28;20133;-63
2023/08/02 11:21:08;;;;;;;2.25;2.25;;;;;;;35.22;33.60;96167.44;5024844;28;20056;-68
2023/08/02 11:23:34;;;;;;;2.10;2.10;;;;;;;35.19;33.53;96171.44;5024833;28;20538;-60
2023/08/02 11:26:12;;;;;;;2.20;2.20;;;;;;;34.43;34.59;96151.50;5023755;28;20049;-62
2023/08/02 11:28:45;;;;;;;1.85;1.85;;;;;;;32.87;33.63;95876.72;5006871;28;20263;-61
2023/08/02 11:31:12;;;;;;;2.00;2.00;;;;;;;35.02;33.75;96162.38;5007573;28;20420;-62
2023/08/02 11:33:40;;;;;;;2.25;2.25;;;;;;;35.07;33.43;96170.91;5021582;28;20296;-63
2023/08/02 11:36:07;;;;;;;2.00;2.00;;;;;;;35.28;33.27;96176.75;5022253;28;20888;-65
2023/08/02 11:38:36;;;;;;;1.90;1.90;;;;;;;35.35;33.80;96160.91;5010195;28;20794;-61
2023/08/02 11:41:14;;;;;;;2.20;2.20;;;;;;;35.63;33.10;96166.84;5013644;28;20053;-59
2023/08/02 11:43:42;;;;;;;2.20;2.20;;;;;;;35.28;33.37;96150.84;5020042;28;20050;-67
2023/08/02 11:46:27;;;;;;;2.20;2.20;;;;;;;35.22;33.75;96167.44;5019599;28;20054;-58
2023/08/02 11:49:04;;;;;;;2.13;2.13;;;;;;;35.27;34.23;96166.56;5017758;28;20057;-63
2023/08/02 11:51:30;;;;;;;1.70;1.70;;;;;;;35.63;33.60;96126.50;5016298;28;20145;-61
2023/08/02 11:53:59;;;;;;;2.05;2.05;;;;;;;36.28;33.25;96167.34;5013829;28;20598;-61
2023/08/02 11:56:27;;;;;;;2.03;2.03;;;;;;;36.23;32.72;96176.91;5023768;28;20298;-62
2023/08/02 11:58:55;;;;;;;2.00;2.00;;;;;;;35.80;32.66;96144.94;5037957;28;20079;-65
2023/08/02 12:01:22;;;;;;;2.00;2.00;;;;;;;35.37;33.95;96167.69;5035407;28;20072;-70
2023/08/02 12:03:58;;;;;;;2.20;2.20;;;;;;;35.65;32.83;96182.25;5012839;28;20479;-66
2023/08/02 12:06:27;;;;;;;2.22;2.22;;;;;;;35.62;32.88;96174.72;5009648;28;20133;-60
2023/08/02 12:08:57;;;;;;;2.20;2.20;;;;;;;35.03;32.86;96144.56;5008450;28;20742;-61
2023/08/02 12:11:27;;;;;;;2.05;2.05;;;;;;;33.96;38.20;96136.06;5037454;28;20075;-63
2023/08/02 12:13:55;;;;;;;2.00;2.00;;;;;;;33.77;40.19;96175.56;5012432;28;20058;-66
2023/08/02 12:16:22;;;;;;;1.98;1.98;;;;;;;33.48;40.81;96166.56;5017845;28;20100;-70
2023/08/02 12:18:56;;;;;;;2.30;2.30;;;;;;;32.60;40.96;96046.38;5021826;28;20531;-63
2023/08/02 12:21:25;;;;;;;1.80;1.80;;;;;;;33.26;41.29;96178.34;5019430;28;20064;-60
2023/08/02 12:23:52;;;;;;;2.00;2.00;;;;;;;32.58;41.74;96084.22;5018444;28;20652;-64
2023/08/02 12:26:31;;;;;;;2.00;2.00;;;;;;;32.81;42.07;96185.94;5012685;28;20111;-59
2023/08/02 12:28:59;;;;;;;2.00;2.00;;;;;;;31.70;42.30;96047.84;5016940;28;20535;-63
2023/08/02 12:31:26;;;;;;;2.25;2.25;;;;;;;31.55;43.54;96050.34;5014850;28;20088;-64
2023/08/02 12:33:54;;;;;;;2.45;2.40;;;;;;;32.35;43.20;96166.06;5019224;28;20076;-61
2023/08/02 12:36:28;;;;;;;2.10;2.10;;;;;;;30.83;42.99;95894.28;5016047;28;20104;-63
2023/08/02 12:38:58;;;;;;;2.20;2.20;;;;;;;32.55;42.37;96130.44;5017842;28;20132;-61
2023/08/02 12:41:25;;;;;;;2.13;2.13;;;;;;;32.83;41.52;96100.09;5028356;28;20053;-65
2023/08/02 12:43:52;;;;;;;2.15;2.15;;;;;;;33.12;42.22;96162.34;5016688;28;20116;-66
2023/08/02 12:46:19;;;;;;;2.30;2.30;;;;;;;32.86;43.03;96156.41;5022279;28;20435;-62
2023/08/02 12:48:46;;;;;;;2.30;2.30;;;;;;;32.91;42.97;96158.44;5019928;28;20500;-72
2023/08/02 12:51:13;;;;;;;2.17;2.17;;;;;;;33.49;41.64;96081.19;5012092;28;20046;-61
2023/08/02 12:53:40;;;;;;;2.17;2.17;;;;;;;35.65;38.00;96139.00;5015972;28;20506;-62
2023/08/02 12:56:07;;;;;;;2.08;2.08;;;;;;;36.69;34.92;96154.25;5015674;28;20496;-62
2023/08/02 12:58:34;;;;;;;2.10;2.10;;;;;;;37.20;34.11;96100.25;5015208;28;20054;-64
2023/08/02 13:01:01;;;;;;;2.25;2.25;;;;;;;36.70;34.26;96092.25;5022324;28;20060;-60
2023/08/02 13:03:28;;;;;;;2.10;2.10;;;;;;;37.97;33.59;96144.13;5012912;28;20468;-63
2023/08/02 13:05:55;;;;;;;2.15;2.15;;;;;;;38.57;32.36;96147.09;5012022;28;20046;-66
2023/08/02 13:08:21;;;;;;;2.00;2.00;;;;;;;39.09;31.38;96120.19;5012286;28;20049;-64
2023/08/02 13:10:51;;;;;;;2.08;2.08;;;;;;;40.00;29.99;96131.41;5027822;28;20042;-64
2023/08/02 13:13:18;;;;;;;2.40;2.35;;;;;;;38.33;32.05;96124.50;5016947;28;20049;-58
2023/08/02 13:15:45;;;;;;;2.25;2.25;;;;;;;38.60;32.12;96082.25;5022278;28;20432;-58
2023/08/02 13:18:12;;;;;;;2.25;2.25;;;;;;;37.99;31.62;95933.13;5010776;28;20042;-60
2023/08/02 13:23:14;;;;;;;2.22;2.22;;;;;;;38.89;31.32;96074.81;5072808;23;20061;-68
2023/08/02 13:25:41;;;;;;;2.30;2.30;;;;;;;38.99;31.69;96145.34;5003378;28;20504;-69
2023/08/02 13:28:07;;;;;;;2.08;2.08;;;;;;;36.83;34.33;96147.84;4994955;28;20057;-64
2023/08/02 13:30:34;;;;;;;2.20;2.20;;;;;;;35.26;36.81;96159.25;5001478;28;20050;-62
2023/08/02 13:33:01;;;;;;;2.10;2.10;;;;;;;34.43;38.25;96152.25;5002683;28;20045;-61
2023/08/02 13:35:29;;;;;;;2.03;2.03;;;;;;;34.31;38.21;96127.09;5001231;28;20077;-59
2023/08/02 13:37:56;;;;;;;2.03;2.03;;;;;;;34.01;39.12;96121.63;5004672;28;20056;-70
2023/08/02 13:40:23;;;;;;;1.95;1.95;;;;;;;33.64;39.86;96145.44;5001752;28;20209;-63
2023/08/02 13:42:50;;;;;;;2.22;2.22;;;;;;;33.89;39.62;96159.69;5002764;28;20057;-60
2023/08/02 13:45:17;;;;;;;2.03;2.03;;;;;;;32.60;40.61;96081.59;5001351;28;20610;-64
2023/08/02 13:47:44;;;;;;;2.13;2.13;;;;;;;33.12;40.85;96150.88;5001651;28;20053;-66
2023/08/02 13:50:11;;;;;;;1.95;1.95;;;;;;;32.71;41.33;96126.56;5001326;28;20069;-66
2023/08/02 13:52:37;;;;;;;2.28;2.28;;;;;;;32.91;41.31;96149.81;5002142;28;20062;-61
2023/08/02 13:55:05;;;;;;;1.95;1.95;;;;;;;31.65;41.72;96020.03;5001749;28;20045;-66
2023/08/02 13:57:32;;;;;;;2.00;2.00;;;;;;;32.15;41.73;96155.06;5002884;28;20134;-69
2023/08/02 13:59:58;;;;;;;2.00;2.00;;;;;;;31.88;42.47;96136.03;4999230;28;20045;-64
2023/08/02 14:02:25;;;;;;;1.90;1.90;;;;;;;31.67;42.93;96106.22;5002704;28;20131;-60
2023/08/02 14:04:52;;;;;;;1.85;1.85;;;;;;;31.65;42.80;96074.44;5002746;28;20405;-65
2023/08/02 14:07:19;;;;;;;1.88;1.88;;;;;;;32.25;42.21;96133.31;4999221;28;20524;-60
2023/08/02 14:09:46;;;;;;;2.30;2.30;;;;;;;32.29;42.62;96171.06;4999329;28;20472;-59
2023/08/02 14:12:15;;;;;;;2.15;2.15;;;;;;;32.15;43.46;96172.25;4998568;28;20062;-58
2023/08/02 14:14:42;;;;;;;2.22;2.22;;;;;;;32.20;43.09;96177.16;5003568;28;20076;-59
2023/08/02 14:17:09;;;;;;;1.80;1.80;;;;;;;31.98;43.47;96185.97;5003497;28;20571;-59
2023/08/02 14:19:36;;;;;;;2.05;2.05;;;;;;;31.53;44.92;96182.59;5003666;28;20050;-57
2023/08/02 14:22:04;;;;;;;2.08;2.08;;;;;;;32.02;44.18;96186.44;5003544;28;20127;-57
2023/08/02 14:24:31;;;;;;;2.03;2.03;;;;;;;31.74;44.67;96182.97;5003180;28;20136;-58
2023/08/02 14:26:58;;;;;;;1.90;1.90;;;;;;;31.85;44.44;96192.28;5003643;28;20535;-58
2023/08/02 14:29:25;;;;;;;1.90;1.90;;;;;;;31.87;44.44;96183.16;5003933;28;20053;-58
2023/08/02 14:31:51;;;;;;;2.15;2.15;;;;;;;31.78;44.56;96177.72;5003996;28;20053;-59
2023/08/02 14:34:23;;;;;;;2.25;2.25;;;;;;;32.34;43.84;96193.19;5004025;28;20151;-60
2023/08/02 14:36:50;;;;;;;2.15;2.15;;;;;;;32.83;42.43;96186.19;5002788;28;20061;-58
2023/08/02 14:39:17;;;;;;;2.10;2.10;;;;;;;33.59;41.45;96186.53;5002751;28;20050;-59
2023/08/02 14:41:44;;;;;;;2.30;2.30;;;;;;;33.10;41.55;96187.94;5004104;28;20050;-60
2023/08/02 14:44:11;;;;;;;1.90;1.90;;;;;;;32.64;42.80;96181.69;5003948;28;20081;-59
2023/08/02 14:46:40;;;;;;;1.88;1.88;;;;;;;32.34;43.04;96187.47;5003897;28;20104;-59
2023/08/02 14:49:08;;;;;;;1.95;1.95;;;;;;;33.18;41.73;96171.66;5003894;28;20060;-59
2023/08/02 14:51:35;;;;;;;1.90;1.90;;;;;;;32.98;41.34;96162.78;5003811;28;20109;-60
2023/08/02 14:54:02;;;;;;;1.98;1.98;;;;;;;32.67;41.60;96149.06;5011989;28;20058;-61
2023/08/02 14:56:39;;;;;;;2.10;2.10;;;;;;;33.42;40.87;96185.22;5007779;28;20511;-59
2023/08/02 14:59:07;;;;;;;2.10;2.10;;;;;;;34.03;39.82;96182.22;5007725;28;20571;-59
2023/08/02 15:01:34;;;;;;;2.15;2.15;;;;;;;34.29;38.75;96101.00;5007188;28;20512;-58
2023/08/02 15:04:02;;;;;;;1.80;1.80;;;;;;;34.93;38.58;96186.66;5007586;28;20052;-58
2023/08/02 15:06:29;;;;;;;2.15;2.15;;;;;;;34.77;39.02;96186.94;5005803;28;20050;-58
2023/08/02 15:08:56;;;;;;;2.17;2.17;;;;;;;33.67;40.66;96178.84;5007663;28;20050;-58
2023/08/02 15:11:22;;;;;;;2.15;2.15;;;;;;;32.76;42.10;96163.81;5007536;28;20069;-59
2023/08/02 15:13:49;;;;;;;2.25;2.25;;;;;;;32.97;41.81;96187.88;5007565;28;20412;-58
2023/08/02 15:16:16;;;;;;;2.10;2.10;;;;;;;33.86;40.01;96196.03;5006246;28;20056;-58
2023/08/02 15:18:43;;;;;;;1.92;1.92;;;;;;;33.12;41.26;96185.31;5017958;28;20452;-57
2023/08/02 15:21:10;;;;;;;2.10;2.10;;;;;;;32.80;40.97;96118.38;5006962;28;20089;-59
2023/08/02 15:23:37;;;;;;;2.13;2.13;;;;;;;33.50;41.06;96181.19;5005226;28;20060;-58
2023/08/02 15:26:04;;;;;;;2.20;2.20;;;;;;;33.12;41.23;96185.31;5005433;28;20621;-59
2023/08/02 15:28:31;;;;;;;1.92;1.92;;;;;;;32.76;42.08;96188.84;4998288;28;20140;-58
2023/08/02 15:30:57;;;;;;;2.17;2.17;;;;;;;33.04;42.29;96192.22;5007050;28;20056;-58
2023/08/02 15:33:26;;;;;;;2.10;2.10;;;;;;;34.16;40.03;96195.88;5006643;28;20057;-61
2023/08/02 15:35:53;;;;;;;2.00;2.00;;;;;;;34.80;38.78;96154.16;5006674;28;20432;-60
2023/08/02 15:38:20;;;;;;;1.98;1.98;;;;;;;35.21;38.11;96182.41;5006691;28;20511;-60
2023/08/02 15:40:47;;;;;;;1.90;1.90;;;;;;;34.60;38.56;96166.34;5006738;28;20523;-60
2023/08/02 15:43:14;;;;;;;1.98;1.98;;;;;;;33.78;39.64;96184.41;5007028;28;20146;-60
2023/08/02 15:45:41;;;;;;;2.05;2.05;;;;;;;33.58;40.05;96187.84;5006699;28;20054;-60
2023/08/02 15:48:07;;;;;;;2.03;2.03;;;;;;;32.74;41.57;96177.91;5005845;28;20086;-58
2023/08/02 15:50:35;;;;;;;2.05;2.05;;;;;;;32.93;41.78;96189.50;5006743;28;20144;-60
2023/08/02 15:53:02;;;;;;;1.88;1.88;;;;;;;32.27;43.20;96202.38;5004291;28;20116;-59
2023/08/02 15:55:29;;;;;;;2.00;2.00;;;;;;;32.38;42.53;96202.28;5006689;28;20050;-60
2023/08/02 15:57:56;;;;;;;2.20;2.20;;;;;;;31.65;43.30;96181.22;5005378;28;20057;-60
2023/08/02 16:00:23;;;;;;;2.13;2.13;;;;;;;31.80;43.37;96210.28;5004557;28;20071;-60
2023/08/02 16:02:52;;;;;;;1.90;1.90;;;;;;;32.09;42.69;96203.81;5006652;28;20058;-59
2023/08/02 16:05:21;;;;;;;2.08;2.08;;;;;;;31.85;43.54;96203.75;5006649;28;20153;-57
2023/08/02 16:07:49;;;;;;;1.73;1.73;;;;;;;31.95;42.84;96204.19;5006841;28;20057;-58
2023/08/02 16:10:15;;;;;;;1.90;1.90;;;;;;;31.71;42.55;96132.50;5006331;28;20054;-59
2023/08/02 16:12:42;;;;;;;2.10;2.10;;;;;;;31.83;43.15;96208.44;5006666;28;22038;-58
2023/08/02 16:15:09;;;;;;;1.85;1.85;;;;;;;31.66;43.10;96205.66;5006025;28;20066;-60
2023/08/02 16:17:36;;;;;;;1.88;1.88;;;;;;;31.53;43.81;96201.88;5006603;28;20090;-58
2023/08/02 16:20:04;;;;;;;1.80;1.80;;;;;;;31.39;43.41;96205.84;5006053;28;20068;-58
2023/08/02 16:22:31;;;;;;;2.00;2.00;;;;;;;30.66;44.29;96148.13;5005270;28;20102;-60
2023/08/02 16:24:57;;;;;;;1.98;1.98;;;;;;;31.18;44.57;96210.34;5004460;28;20054;-58
2023/08/02 16:27:24;;;;;;;1.70;1.70;;;;;;;30.47;44.83;96147.16;5005584;28;20439;-60
2023/08/02 16:29:51;;;;;;;1.85;1.85;;;;;;;30.52;45.14;96166.38;5005907;28;20376;-68
2023/08/02 16:32:20;;;;;;;1.95;1.95;;;;;;;30.47;45.52;96210.03;5005156;28;20050;-63
2023/08/02 16:34:48;;;;;;;1.88;1.88;;;;;;;30.41;45.55;96252.16;5002838;28;20419;-64
2023/08/02 16:37:15;;;;;;;1.80;1.80;;;;;;;30.41;45.25;96220.72;5019223;28;20065;-63
2023/08/02 16:39:44;;;;;;;1.83;1.83;;;;;;;30.45;44.94;96184.03;5005713;28;20590;-64
2023/08/02 16:42:11;;;;;;;2.00;2.00;;;;;;;30.89;43.99;96188.88;5005676;28;20093;-65
2023/08/02 16:44:39;;;;;;;1.85;1.85;;;;;;;31.84;43.12;96221.47;5005628;28;20077;-64
2023/08/02 16:47:06;;;;;;;2.00;2.00;;;;;;;31.87;42.31;96220.41;5005483;28;20336;-64
2023/08/02 16:49:33;;;;;;;2.40;2.40;;;;;;;32.20;41.63;96223.03;5005858;28;20096;-65
2023/08/02 16:52:00;;;;;;;1.92;1.92;;;;;;;32.59;40.78;96223.47;5020452;28;20436;-64
2023/08/02 16:54:27;;;;;;;2.10;2.10;;;;;;;32.19;41.59;96238.66;5004120;28;20050;-64
2023/08/02 16:56:54;;;;;;;1.85;1.85;;;;;;;31.75;41.36;96168.13;5005637;28;20531;-64
2023/08/02 16:59:20;;;;;;;2.00;2.00;;;;;;;32.09;41.32;96237.47;5005383;28;20594;-65
2023/08/02 17:01:48;;;;;;;2.20;2.20;;;;;;;32.31;40.70;96238.03;5005270;28;20500;-64
2023/08/02 17:04:16;;;;;;;2.20;2.20;;;;;;;31.98;40.87;96246.13;5004020;28;20061;-64
2023/08/02 17:06:43;;;;;;;2.20;2.20;;;;;;;31.52;41.64;96201.06;5005184;28;20049;-64
2023/08/02 17:09:10;;;;;;;1.90;1.90;;;;;;;30.90;42.84;96194.06;5005537;28;20491;-63
2023/08/02 17:11:37;;;;;;;1.85;1.85;;;;;;;30.98;42.75;96236.44;5005046;28;20060;-64
2023/08/02 17:14:04;;;;;;;1.98;1.98;;;;;;;30.75;43.49;96235.69;5005434;28;20057;-64
2023/08/02 17:16:37;;;;;;;1.63;1.63;;;;;;;30.61;43.60;96251.84;5004339;28;20046;-64
2023/08/02 17:19:06;;;;;;;1.77;1.77;;;;;;;30.32;43.94;96243.81;5003859;28;20073;-63
2023/08/02 17:21:34;;;;;;;1.90;1.90;;;;;;;30.34;43.94;96246.94;5004231;28;20626;-64
2023/08/02 17:24:02;;;;;;;1.80;1.80;;;;;;;30.25;44.24;96244.38;5004992;28;20582;-63
2023/08/02 17:26:29;;;;;;;1.80;1.80;;;;;;;29.98;44.17;96230.81;5003385;28;20100;-63
2023/08/02 17:28:58;;;;;;;1.80;1.80;;;;;;;29.70;44.27;96210.03;5005104;28;20057;-64
2023/08/02 17:31:25;;;;;;;1.90;1.90;;;;;;;30.05;44.59;96253.13;5004483;28;20104;-65
2023/08/02 17:33:55;;;;;;;1.73;1.73;;;;;;;29.95;44.56;96257.56;5004915;28;20459;-64
2023/08/02 17:36:23;;;;;;;1.80;1.80;;;;;;;29.94;44.58;96258.84;5004309;28;20516;-65
2023/08/02 17:38:50;;;;;;;1.50;1.50;;;;;;;29.73;45.04;96259.59;5004593;28;20050;-64
2023/08/02 17:41:22;;;;;;;1.80;1.80;;;;;;;29.72;45.15;96258.06;5004948;28;20100;-63
2023/08/02 17:43:51;;;;;;;1.88;1.88;;;;;;;29.39;45.62;96230.16;5005226;28;20455;-63
2023/08/02 17:46:22;;;;;;;1.52;1.52;;;;;;;29.33;45.23;96232.22;5004713;28;20049;-64
2023/08/02 17:48:50;;;;;;;1.70;1.70;;;;;;;29.60;45.66;96262.91;5004895;28;20142;-64
2023/08/02 17:51:17;;;;;;;1.73;1.73;;;;;;;29.64;45.84;96269.19;5004369;28;20046;-65
2023/08/02 17:53:44;;;;;;;1.65;1.65;;;;;;;28.79;46.15;96182.97;5019402;28;20493;-64
2023/08/02 17:56:15;;;;;;;1.50;1.50;;;;;;;29.43;45.98;96262.09;5004112;28;20064;-64
2023/08/02 17:58:42;;;;;;;1.35;1.35;;;;;;;29.43;46.31;96270.66;5004562;28;20053;-65
2023/08/02 18:01:13;;;;;;;1.92;1.92;;;;;;;29.44;46.46;96272.22;5004338;28;20061;-63
2023/08/02 18:03:44;;;;;;;1.60;1.60;;;;;;;29.33;46.65;96267.25;5004175;28;20064;-64
2023/08/02 18:06:13;;;;;;;1.48;1.48;;;;;;;29.28;46.74;96279.44;5004394;28;20064;-63
2023/08/02 18:08:41;;;;;;;1.55;1.55;;;;;;;29.26;46.84;96284.09;5003948;28;20072;-64
2023/08/02 18:11:17;;;;;;;1.70;1.70;;;;;;;29.23;47.06;96291.59;5003662;28;20598;-64
2023/08/02 18:13:44;;;;;;;1.45;1.45;;;;;;;28.87;47.52;96240.28;5002547;28;20128;-64
2023/08/02 18:16:10;;;;;;;1.70;1.70;;;;;;;29.23;47.84;96296.50;5004116;28;20124;-64